South Seaville, New Jersey
Current Conditions -  °F | °C
As of 11:15 AM on Thursday 18 Dec 2014 (Local Time) from KWWD Reporting Station
Clear Clear  
Wind Chill: 32°   Ceiling: Unl
Heat Index: 39°   Visibility: 10mi
Dew Point: 19°   Wind: 12mph
Humidity: 45%   Direction: 310°NW
Pressure: 30.06"   Gusts: 22mph
Location:  39.18°N, 74.76°W
Report Text: KWWD 181615Z AUTO 31010G19KT 10SM CLR 04/M07 A3006 RMK AO1
Loading
Personal Weather Stations






























Interactive Weather Map New forecast layout! Learn more

10-Day Weather Forecast

Advertisements
Track Severe Weather on mobile